createdAt,value
2023-08-15T00:01:44.858Z,77.39
2023-08-15T00:04:11.415Z,77.42
2023-08-15T00:06:37.895Z,77.73
2023-08-15T00:09:04.552Z,78.23
2023-08-15T00:11:31.110Z,79.46
2023-08-15T00:13:57.925Z,78.66
2023-08-15T00:16:24.920Z,78.53
2023-08-15T00:18:51.539Z,77.77
2023-08-15T00:21:18.282Z,77.52
2023-08-15T00:23:44.724Z,77.51
2023-08-15T00:26:11.168Z,77.60
2023-08-15T00:28:37.664Z,77.63
2023-08-15T00:31:04.069Z,77.78
2023-08-15T00:33:30.530Z,77.95
2023-08-15T00:35:57.028Z,78.63
2023-08-15T00:38:23.548Z,77.96
2023-08-15T00:40:50.188Z,77.92
2023-08-15T00:43:18.563Z,78.33
2023-08-15T00:45:45.684Z,78.42
2023-08-15T00:48:12.831Z,77.90
2023-08-15T00:50:45.798Z,77.43
2023-08-15T00:53:12.865Z,77.27
2023-08-15T00:55:39.533Z,77.25
2023-08-15T00:58:06.524Z,77.50
2023-08-15T01:00:33.307Z,77.18
2023-08-15T01:03:00.233Z,77.07
2023-08-15T01:05:29.590Z,77.23
2023-08-15T01:07:56.715Z,77.62
2023-08-15T01:10:23.659Z,77.26
2023-08-15T01:13:32.225Z,77.54
2023-08-15T01:16:03.279Z,77.21
2023-08-15T01:18:39.909Z,77.57
2023-08-15T01:21:07.221Z,77.84
2023-08-15T01:23:53.571Z,78.81
2023-08-15T01:26:20.057Z,78.89
2023-08-15T01:28:46.543Z,78.02
2023-08-15T01:31:30.565Z,77.87
2023-08-15T01:34:11.024Z,77.63
2023-08-15T01:36:45.495Z,77.55
2023-08-15T01:39:18.522Z,77.85
2023-08-15T01:41:46.998Z,78.71
2023-08-15T01:44:15.240Z,78.47
2023-08-15T01:46:41.792Z,78.11
2023-08-15T01:49:08.260Z,78.11
2023-08-15T01:51:34.613Z,78.17
2023-08-15T01:54:01.060Z,78.60
2023-08-15T01:56:27.587Z,79.38
2023-08-15T01:58:54.097Z,78.95
2023-08-15T02:01:20.565Z,79.14
2023-08-15T02:03:47.083Z,79.30
2023-08-15T02:06:13.569Z,78.95
2023-08-15T02:08:40.065Z,78.77
2023-08-15T02:11:06.554Z,79.14
2023-08-15T02:13:34.183Z,78.95
2023-08-15T02:16:01.529Z,78.70
2023-08-15T02:18:30.475Z,78.49
2023-08-15T02:20:56.937Z,78.56
2023-08-15T02:23:23.578Z,78.62
2023-08-15T02:25:50.067Z,78.53
2023-08-15T02:28:16.601Z,78.50
2023-08-15T02:30:43.351Z,78.40
2023-08-15T02:33:09.775Z,78.31
2023-08-15T02:35:41.129Z,78.28
2023-08-15T02:38:07.776Z,78.21
2023-08-15T02:40:34.412Z,78.13
2023-08-15T02:43:00.882Z,78.22
2023-08-15T02:45:27.520Z,78.45
2023-08-15T02:47:54.134Z,78.35
2023-08-15T02:50:20.592Z,78.40
2023-08-15T02:52:47.028Z,78.50
2023-08-15T02:55:13.467Z,78.90
2023-08-15T02:57:39.895Z,78.19
2023-08-15T03:00:08.487Z,78.21
2023-08-15T03:02:35.096Z,77.75
2023-08-15T03:05:01.972Z,77.58
2023-08-15T03:07:28.442Z,77.55
2023-08-15T03:09:54.941Z,77.43
2023-08-15T03:12:21.366Z,77.34
2023-08-15T03:14:47.948Z,77.42
2023-08-15T03:17:14.609Z,77.41
2023-08-15T03:19:41.351Z,77.53
2023-08-15T03:22:07.978Z,77.02
2023-08-15T03:24:34.533Z,76.82
2023-08-15T03:27:03.936Z,77.03
2023-08-15T03:29:31.013Z,77.07
2023-08-15T03:31:59.501Z,77.23
2023-08-15T03:34:26.048Z,77.35
2023-08-15T03:36:52.848Z,77.60
2023-08-15T03:39:19.263Z,77.78
2023-08-15T03:41:45.829Z,77.99
2023-08-15T03:44:12.395Z,78.03
2023-08-15T03:46:41.384Z,78.21
2023-08-15T03:49:08.359Z,78.33
2023-08-15T03:54:05.456Z,78.22
2023-08-15T03:56:31.970Z,79.02
2023-08-15T03:58:58.364Z,78.68
2023-08-15T04:01:24.804Z,78.56
2023-08-15T04:03:52.587Z,78.13
2023-08-15T04:06:19.049Z,77.85
2023-08-15T04:08:46.001Z,77.68
2023-08-15T04:11:12.478Z,77.80
2023-08-15T04:13:39.397Z,78.85
2023-08-15T04:16:05.903Z,78.24
2023-08-15T04:18:35.036Z,78.15
2023-08-15T04:21:01.691Z,78.53
2023-08-15T04:23:28.149Z,78.24
2023-08-15T04:25:54.693Z,79.38
2023-08-15T04:28:22.066Z,76.31
2023-08-15T04:30:48.536Z,74.67
2023-08-15T04:33:15.073Z,70.59
2023-08-15T04:35:41.550Z,68.20
2023-08-15T04:38:10.840Z,66.05
2023-08-15T04:40:40.884Z,63.83
2023-08-15T04:43:08.183Z,61.79
2023-08-15T04:45:40.957Z,59.96
2023-08-15T04:48:09.159Z,58.41
2023-08-15T04:50:35.551Z,57.14
2023-08-15T04:53:02.085Z,54.95
2023-08-15T04:55:28.529Z,53.16
2023-08-15T04:57:55.008Z,51.51
2023-08-15T05:00:21.646Z,50.16
2023-08-15T05:02:48.271Z,49.07
2023-08-15T05:05:15.620Z,47.95
2023-08-15T05:07:42.228Z,46.98
2023-08-15T05:10:09.006Z,46.06
2023-08-15T05:12:35.641Z,44.93
2023-08-15T05:15:02.908Z,43.76
2023-08-15T05:17:31.982Z,42.40
2023-08-15T05:19:59.022Z,41.26
2023-08-15T05:22:25.420Z,40.15
2023-08-15T05:24:52.150Z,38.99
2023-08-15T05:27:18.712Z,38.28
2023-08-15T05:29:45.355Z,37.51
2023-08-15T05:32:11.810Z,37.02
2023-08-15T05:34:38.362Z,36.32
2023-08-15T05:37:04.884Z,36.00
2023-08-15T05:39:31.320Z,36.00
2023-08-15T05:41:57.822Z,35.78
2023-08-15T05:44:26.074Z,37.03
2023-08-15T05:46:52.593Z,38.41
2023-08-15T05:49:19.133Z,40.76
2023-08-15T05:51:45.695Z,42.19
2023-08-15T05:54:12.114Z,43.69
2023-08-15T05:56:39.397Z,45.20
2023-08-15T05:59:05.837Z,46.70
2023-08-15T06:01:32.248Z,47.65
2023-08-15T06:03:58.879Z,49.48
2023-08-15T06:06:25.425Z,49.57
2023-08-15T06:08:51.870Z,50.25
2023-08-15T06:11:18.288Z,51.63
2023-08-15T06:13:44.743Z,51.86
2023-08-15T06:16:13.438Z,52.98
2023-08-15T06:18:40.522Z,53.66
2023-08-15T06:21:06.926Z,54.50
2023-08-15T06:23:33.430Z,55.29
2023-08-15T06:25:59.877Z,55.54
2023-08-15T06:28:26.515Z,56.19
2023-08-15T06:30:52.936Z,56.88
2023-08-15T06:33:19.629Z,57.41
2023-08-15T06:35:46.131Z,57.86
2023-08-15T06:38:12.652Z,58.64
2023-08-15T06:40:40.346Z,59.28
2023-08-15T06:43:06.807Z,59.91
2023-08-15T06:45:37.087Z,60.21
2023-08-15T06:48:05.998Z,60.44
2023-08-15T06:50:34.088Z,60.41
2023-08-15T06:53:00.612Z,60.55
2023-08-15T06:55:27.045Z,60.45
2023-08-15T06:57:54.536Z,59.93
2023-08-15T07:00:21.366Z,60.08
2023-08-15T07:02:47.972Z,59.67
2023-08-15T07:05:15.230Z,59.69
2023-08-15T07:07:41.939Z,59.69
2023-08-15T07:10:10.746Z,59.66
2023-08-15T07:12:37.342Z,59.46
2023-08-15T07:15:04.698Z,59.38
2023-08-15T07:17:31.381Z,59.28
2023-08-15T07:19:58.332Z,59.20
2023-08-15T07:22:24.788Z,59.27
2023-08-15T07:24:51.291Z,59.58
2023-08-15T07:27:18.263Z,59.60
2023-08-15T07:29:45.305Z,59.92
2023-08-15T07:32:13.601Z,59.64
2023-08-15T07:34:41.326Z,59.43
2023-08-15T07:37:07.947Z,59.61
2023-08-15T07:39:34.627Z,59.57
2023-08-15T07:42:01.116Z,59.17
2023-08-15T07:44:28.109Z,58.83
2023-08-15T07:46:54.676Z,57.98
2023-08-15T07:49:21.302Z,57.91
2023-08-15T07:51:47.890Z,57.15
2023-08-15T07:54:14.396Z,57.28
2023-08-15T07:56:40.992Z,57.53
2023-08-15T07:59:07.491Z,57.22
2023-08-15T08:01:34.184Z,57.16
2023-08-15T08:04:01.321Z,56.59
2023-08-15T08:06:39.842Z,57.02
2023-08-15T08:09:08.942Z,56.96
2023-08-15T08:11:35.432Z,56.57
2023-08-15T08:14:01.897Z,56.09
2023-08-15T08:16:29.269Z,55.73
2023-08-15T08:18:56.104Z,55.77
2023-08-15T08:21:23.440Z,55.60
2023-08-15T08:23:49.984Z,55.06
2023-08-15T08:26:16.443Z,55.02
2023-08-15T08:28:42.884Z,54.88
2023-08-15T08:31:09.556Z,54.67
2023-08-15T08:33:36.096Z,54.72
2023-08-15T08:36:02.775Z,54.86
2023-08-15T08:38:29.240Z,54.88
2023-08-15T08:40:56.177Z,54.68
2023-08-15T08:43:23.298Z,54.38
2023-08-15T08:45:55.054Z,54.51
2023-08-15T08:48:22.901Z,54.18
2023-08-15T08:50:49.916Z,53.40
2023-08-15T08:53:16.703Z,53.52
2023-08-15T08:55:47.862Z,53.22
2023-08-15T08:58:15.079Z,52.55
2023-08-15T09:00:42.141Z,52.14
2023-08-15T09:03:10.521Z,51.69
2023-08-15T09:05:38.227Z,51.54
2023-08-15T09:08:06.885Z,51.44
2023-08-15T09:10:33.546Z,50.38
2023-08-15T09:13:01.346Z,51.19
2023-08-15T09:15:29.377Z,51.13
2023-08-15T09:18:05.223Z,51.59
2023-08-15T09:20:31.986Z,51.36
2023-08-15T09:23:00.874Z,50.67
2023-08-15T09:25:28.745Z,48.89
2023-08-15T09:27:55.268Z,48.88
2023-08-15T09:30:22.860Z,48.01
2023-08-15T09:32:49.626Z,47.40
2023-08-15T09:35:19.153Z,46.80
2023-08-15T09:37:50.774Z,45.35
2023-08-15T09:40:26.215Z,44.55
2023-08-15T09:42:53.651Z,41.55
2023-08-15T09:45:20.893Z,41.69
2023-08-15T09:47:47.627Z,42.14
2023-08-15T09:50:18.685Z,41.78
2023-08-15T09:52:50.667Z,41.62
2023-08-15T09:55:19.488Z,41.71
2023-08-15T09:57:46.600Z,40.88
2023-08-15T10:00:17.842Z,39.94
2023-08-15T10:03:20.405Z,38.03
2023-08-15T10:05:55.036Z,33.87
2023-08-15T10:08:23.712Z,33.84
2023-08-15T10:10:52.549Z,32.91
2023-08-15T10:13:34.089Z,32.01
2023-08-15T10:16:04.548Z,32.90
2023-08-15T10:18:34.171Z,33.54
2023-08-15T10:21:01.985Z,34.12
2023-08-15T10:23:35.101Z,33.87
2023-08-15T10:26:02.663Z,33.26
2023-08-15T10:28:33.669Z,32.07
2023-08-15T10:31:00.719Z,32.39
2023-08-15T10:33:32.235Z,31.58
2023-08-15T10:35:58.662Z,31.74
2023-08-15T10:38:31.582Z,32.43
2023-08-15T10:41:04.244Z,32.58
2023-08-15T10:43:34.571Z,32.54
2023-08-15T10:46:07.538Z,32.75
2023-08-15T10:49:00.187Z,31.73
2023-08-15T10:51:32.438Z,31.12
2023-08-15T10:54:08.025Z,31.64
2023-08-15T10:56:41.352Z,31.23
2023-08-15T10:59:14.231Z,29.77
2023-08-15T11:01:43.938Z,30.29
2023-08-15T11:04:15.897Z,30.75
2023-08-15T11:06:48.070Z,31.60
2023-08-15T11:09:17.847Z,32.05
2023-08-15T11:11:45.795Z,31.47
2023-08-15T11:14:18.104Z,31.20
2023-08-15T11:16:49.741Z,31.84
2023-08-15T11:19:20.294Z,31.72
2023-08-15T11:21:50.557Z,31.30
2023-08-15T11:24:17.184Z,31.05
2023-08-15T11:26:44.855Z,31.10
2023-08-15T11:29:13.091Z,30.83
2023-08-15T11:31:40.179Z,30.40
2023-08-15T11:34:07.979Z,30.57
2023-08-15T11:36:36.982Z,30.64
2023-08-15T11:39:04.085Z,30.61
2023-08-15T11:41:34.111Z,30.84
2023-08-15T11:44:04.581Z,30.94
2023-08-15T11:47:39.934Z,31.01
2023-08-15T11:50:37.914Z,31.01
2023-08-15T11:53:22.977Z,31.28
2023-08-15T11:55:51.831Z,31.73
2023-08-15T11:58:33.375Z,30.97
2023-08-15T12:01:06.645Z,31.12
2023-08-15T12:03:37.054Z,31.27
2023-08-15T12:06:10.077Z,31.39
2023-08-15T12:08:39.872Z,31.45
2023-08-15T12:11:11.035Z,31.06
2023-08-15T12:13:41.517Z,30.85
2023-08-15T12:16:11.484Z,31.20
2023-08-15T12:18:39.886Z,31.60
2023-08-15T12:21:09.750Z,31.55
2023-08-15T12:23:37.690Z,31.37
2023-08-15T12:26:04.591Z,30.75
2023-08-15T12:28:31.293Z,30.81
2023-08-15T12:32:39.722Z,31.43
2023-08-15T12:35:06.855Z,30.88
2023-08-15T12:37:33.470Z,30.46
2023-08-15T12:40:00.514Z,30.87
2023-08-15T12:42:28.273Z,31.10
2023-08-15T12:44:55.204Z,31.19
2023-08-15T12:48:31.981Z,31.01
2023-08-15T12:51:00.103Z,30.96
2023-08-15T12:53:26.615Z,30.87
2023-08-15T12:55:53.129Z,30.97
2023-08-15T12:58:19.588Z,31.38
2023-08-15T13:00:49.244Z,31.55
2023-08-15T13:03:15.861Z,31.25
2023-08-15T13:05:42.530Z,31.24
2023-08-15T13:08:09.057Z,31.79
2023-08-15T13:10:35.661Z,31.94
2023-08-15T13:13:02.429Z,31.20
2023-08-15T13:15:28.962Z,30.82
2023-08-15T13:17:55.870Z,31.17
2023-08-15T13:20:22.524Z,31.86
2023-08-15T13:22:49.090Z,31.69
2023-08-15T13:25:15.710Z,31.99
2023-08-15T13:27:42.140Z,31.96
2023-08-15T13:30:08.836Z,31.64
2023-08-15T13:32:35.419Z,31.79
2023-08-15T13:35:02.017Z,31.91
2023-08-15T13:37:28.663Z,32.38
2023-08-15T13:40:00.259Z,32.38
2023-08-15T13:42:37.564Z,32.20
2023-08-15T13:45:11.478Z,32.50
2023-08-15T13:47:38.262Z,32.80
2023-08-15T13:50:06.039Z,32.86
2023-08-15T13:52:32.808Z,32.93
2023-08-15T13:54:59.227Z,33.06
2023-08-15T13:57:25.707Z,33.14
2023-08-15T13:59:52.995Z,32.84
2023-08-15T14:02:19.522Z,32.57
2023-08-15T14:04:45.968Z,32.72
2023-08-15T14:07:12.508Z,32.62
2023-08-15T14:09:39.015Z,32.89
2023-08-15T14:12:05.947Z,33.37
2023-08-15T14:14:32.486Z,33.60
2023-08-15T14:16:59.051Z,33.51
2023-08-15T14:19:25.549Z,33.39
2023-08-15T14:21:52.075Z,33.63
2023-08-15T14:24:18.702Z,33.85
2023-08-15T14:26:45.199Z,33.62
2023-08-15T14:29:12.941Z,33.40
2023-08-15T14:31:39.616Z,33.31
2023-08-15T14:34:06.089Z,33.74
2023-08-15T14:36:32.636Z,33.98
2023-08-15T14:38:59.100Z,34.08
2023-08-15T14:41:25.596Z,34.11
2023-08-15T14:43:52.452Z,33.81
2023-08-15T14:46:19.050Z,33.68
2023-08-15T14:48:45.585Z,33.91
2023-08-15T14:51:12.149Z,34.28
2023-08-15T14:53:38.697Z,34.74
2023-08-15T14:56:06.917Z,34.77
2023-08-15T14:58:33.455Z,34.39
2023-08-15T15:01:00.028Z,34.52
2023-08-15T15:03:26.931Z,34.80
2023-08-15T15:05:53.728Z,35.19
2023-08-15T15:08:20.215Z,35.45
2023-08-15T15:10:46.851Z,35.61
2023-08-15T15:13:13.623Z,35.75
2023-08-15T15:15:53.829Z,35.98
2023-08-15T15:18:22.896Z,36.18
2023-08-15T15:20:49.814Z,36.29
2023-08-15T15:23:16.630Z,36.48
2023-08-15T15:25:47.886Z,36.83
2023-08-15T15:28:15.133Z,37.05
2023-08-15T15:30:41.712Z,37.02
2023-08-15T15:33:08.381Z,37.10
2023-08-15T15:35:35.078Z,37.20
2023-08-15T15:38:01.569Z,37.46
2023-08-15T15:40:28.130Z,37.56
2023-08-15T15:42:54.663Z,37.49
2023-08-15T15:45:21.471Z,37.68
2023-08-15T15:47:48.201Z,37.81
2023-08-15T15:50:20.114Z,37.95
2023-08-15T15:52:47.939Z,38.16
2023-08-15T15:55:20.235Z,38.11
2023-08-15T15:57:46.850Z,38.21
2023-08-15T16:00:16.615Z,38.24
2023-08-15T16:02:44.132Z,38.38
2023-08-15T16:05:12.505Z,38.27
2023-08-15T16:07:39.365Z,38.20
2023-08-15T16:10:07.245Z,38.20
2023-08-15T16:12:34.108Z,38.15
2023-08-15T16:15:01.104Z,38.22
2023-08-15T16:17:27.785Z,38.28
2023-08-15T16:19:54.929Z,38.50
2023-08-15T16:22:22.325Z,38.70
2023-08-15T16:24:49.077Z,40.18
2023-08-15T16:27:15.522Z,41.39
2023-08-15T16:29:42.026Z,42.38
2023-08-15T16:32:08.623Z,43.63
2023-08-15T16:34:35.080Z,45.16
2023-08-15T16:37:01.539Z,46.38
2023-08-15T16:39:28.053Z,47.50
2023-08-15T16:41:54.508Z,48.00
2023-08-15T16:44:21.096Z,48.72
2023-08-15T16:46:48.055Z,49.42
2023-08-15T16:49:14.617Z,49.55
2023-08-15T16:51:41.488Z,49.92
2023-08-15T16:54:08.045Z,50.03
2023-08-15T16:56:34.868Z,50.48
2023-08-15T16:59:01.367Z,50.80
2023-08-15T17:01:27.982Z,50.88
2023-08-15T17:03:54.748Z,50.64
2023-08-15T17:06:21.359Z,50.56
2023-08-15T17:08:48.013Z,50.29
2023-08-15T17:11:14.618Z,49.35
2023-08-15T17:13:41.210Z,49.37
2023-08-15T17:16:07.788Z,49.09
2023-08-15T17:18:34.388Z,49.16
2023-08-15T17:21:01.116Z,49.49
2023-08-15T17:23:27.783Z,49.95
2023-08-15T17:25:54.278Z,50.60
2023-08-15T17:28:20.812Z,51.17
2023-08-15T17:30:47.413Z,51.50
2023-08-15T17:33:13.889Z,51.64
2023-08-15T17:35:40.364Z,51.93
2023-08-15T17:38:06.894Z,52.57
2023-08-15T17:40:35.175Z,53.11
2023-08-15T17:43:01.891Z,53.95
2023-08-15T17:45:28.642Z,54.08
2023-08-15T17:47:55.182Z,54.62
2023-08-15T17:50:21.769Z,55.30
2023-08-15T17:52:48.595Z,55.80
2023-08-15T17:55:15.463Z,56.33
2023-08-15T17:57:42.018Z,57.00
2023-08-15T18:00:09.980Z,57.46
2023-08-15T18:02:38.522Z,57.74
2023-08-15T18:05:06.088Z,58.90
2023-08-15T18:07:32.945Z,59.30
2023-08-15T18:10:00.508Z,60.16
2023-08-15T18:12:29.452Z,60.38
2023-08-15T18:14:56.528Z,61.07
2023-08-15T18:17:24.222Z,60.89
2023-08-15T18:19:51.004Z,60.86
2023-08-15T18:22:18.551Z,61.28
2023-08-15T18:24:47.082Z,61.89
2023-08-15T18:27:13.585Z,62.05
2023-08-15T18:29:40.443Z,62.33
2023-08-15T18:32:07.110Z,62.50
2023-08-15T18:34:33.790Z,62.60
2023-08-15T18:37:00.311Z,62.94
2023-08-15T18:39:26.750Z,62.73
2023-08-15T18:41:53.414Z,63.02
2023-08-15T18:44:19.845Z,63.04
2023-08-15T18:46:47.976Z,63.22
2023-08-15T18:49:14.796Z,63.61
2023-08-15T18:51:41.345Z,63.75
2023-08-15T18:54:08.514Z,64.06
2023-08-15T18:56:35.193Z,64.26
2023-08-15T18:59:01.693Z,64.21
2023-08-15T19:01:28.401Z,64.22
2023-08-15T19:03:55.219Z,64.20
2023-08-15T19:06:21.863Z,64.57
2023-08-15T19:08:48.530Z,64.94
2023-08-15T19:11:15.183Z,65.06
2023-08-15T19:13:41.941Z,65.58
2023-08-15T19:16:08.449Z,65.76
2023-08-15T19:18:35.412Z,65.90
2023-08-15T19:21:02.211Z,65.83
2023-08-15T19:23:28.717Z,66.28
2023-08-15T19:25:55.278Z,67.15
2023-08-15T19:28:22.603Z,66.16
2023-08-15T19:30:49.091Z,65.51
2023-08-15T19:33:15.746Z,65.65
2023-08-15T19:35:42.437Z,66.90
2023-08-15T19:38:09.112Z,67.38
2023-08-15T19:40:35.644Z,67.69
2023-08-15T19:43:02.654Z,67.72
2023-08-15T19:45:29.232Z,67.88
2023-08-15T19:47:57.372Z,68.09
2023-08-15T19:50:23.938Z,67.99
2023-08-15T19:52:50.409Z,68.40
2023-08-15T19:55:16.859Z,68.38
2023-08-15T19:57:43.383Z,68.85
2023-08-15T20:00:11.073Z,69.07
2023-08-15T20:02:40.003Z,69.28
2023-08-15T20:05:08.733Z,69.34
2023-08-15T20:07:36.481Z,69.56
2023-08-15T20:10:15.951Z,68.63
2023-08-15T20:12:42.548Z,68.36
2023-08-15T20:15:09.902Z,69.76
2023-08-15T20:17:36.490Z,70.13
2023-08-15T20:20:03.396Z,70.35
2023-08-15T20:22:32.003Z,70.42
2023-08-15T20:24:58.498Z,70.37
2023-08-15T20:27:25.111Z,70.45
2023-08-15T20:29:56.832Z,70.31
2023-08-15T20:32:29.364Z,70.47
2023-08-15T20:34:55.993Z,70.94
2023-08-15T20:37:22.710Z,70.56
2023-08-15T20:39:49.416Z,70.51
2023-08-15T20:42:16.235Z,70.31
2023-08-15T20:44:42.985Z,70.27
2023-08-15T20:47:10.508Z,70.67
2023-08-15T20:49:41.812Z,71.01
2023-08-15T20:52:10.268Z,71.50
2023-08-15T20:54:36.809Z,71.67
2023-08-15T20:57:04.531Z,71.84
2023-08-15T20:59:31.294Z,71.81
2023-08-15T21:01:57.993Z,71.88
2023-08-15T21:04:24.811Z,72.10
2023-08-15T21:06:52.864Z,72.16
2023-08-15T21:09:20.272Z,71.75
2023-08-15T21:11:47.477Z,71.20
2023-08-15T21:14:15.090Z,71.26
2023-08-15T21:16:41.614Z,71.63
2023-08-15T21:19:08.388Z,72.27
2023-08-15T21:21:35.181Z,72.44
2023-08-15T21:24:01.677Z,73.13
2023-08-15T21:26:28.340Z,73.48
2023-08-15T21:28:54.826Z,73.46
2023-08-15T21:31:23.607Z,73.82
2023-08-15T21:33:50.046Z,73.91
2023-08-15T21:36:16.553Z,73.79
2023-08-15T21:38:43.006Z,74.03
2023-08-15T21:41:09.453Z,73.89
2023-08-15T21:43:36.636Z,73.56
2023-08-15T21:46:03.154Z,73.87
2023-08-15T21:48:29.742Z,74.34
2023-08-15T21:50:56.234Z,74.21
2023-08-15T21:53:22.898Z,73.77
2023-08-15T21:55:49.382Z,73.64
2023-08-15T21:58:16.304Z,73.35
2023-08-15T22:00:43.304Z,74.31
2023-08-15T22:03:10.817Z,74.49
2023-08-15T22:05:37.419Z,75.00
2023-08-15T22:08:04.550Z,75.19
2023-08-15T22:10:31.355Z,74.59
2023-08-15T22:12:57.896Z,75.05
2023-08-15T22:15:27.871Z,75.29
2023-08-15T22:18:04.392Z,75.38
2023-08-15T22:20:41.248Z,75.37
2023-08-15T22:23:08.066Z,75.51
2023-08-15T22:25:35.146Z,75.43
2023-08-15T22:28:01.919Z,75.55
2023-08-15T22:30:29.204Z,75.57
2023-08-15T22:32:55.849Z,75.25
2023-08-15T22:35:39.489Z,74.82
2023-08-15T22:38:07.182Z,74.43
2023-08-15T22:40:34.477Z,74.62
2023-08-15T22:43:00.980Z,74.64
2023-08-15T22:45:27.715Z,74.80
2023-08-15T22:47:54.454Z,75.74
2023-08-15T22:50:23.782Z,75.16
2023-08-15T22:52:50.580Z,75.15
2023-08-15T22:55:17.579Z,75.47
2023-08-15T22:57:44.341Z,75.61
2023-08-15T23:00:11.905Z,75.64
2023-08-15T23:02:38.825Z,74.75
2023-08-15T23:05:06.096Z,74.77
2023-08-15T23:07:32.697Z,74.94
2023-08-15T23:09:59.643Z,75.02
2023-08-15T23:12:26.321Z,75.23
2023-08-15T23:14:53.037Z,75.97
2023-08-15T23:17:19.928Z,76.33
2023-08-15T23:19:46.412Z,76.19
2023-08-15T23:22:12.973Z,76.69
2023-08-15T23:24:39.677Z,76.80
2023-08-15T23:27:06.504Z,76.46
2023-08-15T23:29:36.767Z,76.69
2023-08-15T23:32:04.502Z,76.18
2023-08-15T23:34:32.097Z,76.56
2023-08-15T23:36:58.566Z,77.01
2023-08-15T23:39:25.751Z,76.50
2023-08-15T23:41:52.520Z,76.51
2023-08-15T23:44:22.308Z,76.35
2023-08-15T23:46:49.348Z,76.47
2023-08-15T23:49:16.041Z,76.65
2023-08-15T23:51:43.660Z,76.63
2023-08-15T23:54:10.440Z,76.70
2023-08-15T23:56:37.992Z,76.49
2023-08-15T23:59:04.845Z,77.11
